Terminal Aerodrome Forecast
Issued by NWS

Home | Current Version | Previous Version | Text Only | Print | Product List | Glossary On
Versions: 1 2 3 4 5 6 7 8 9 10 11 12 13 14 15 16 17
000
FTUS43 KDLH 270900 AAA
TAFHIB
TAF AMD
KHIB 270927Z 2709/2806 29004KT P6SM -RA FEW025 BKN060
      TEMPO 2709/2712 2SM -RA
     FM271200 32008KT P6SM VCSH SCT007 OVC012
     FM271600 35010G18KT P6SM VCSH OVC015
     FM272000 01010G18KT P6SM VCSH SCT025 BKN035
     FM280000 36008KT P6SM SKC=

USA.gov is the U.S. government's official web portal to all federal, state and local government web resources and services.